createdAt,value
2019-03-30T00:00:55.337Z,33.65
2019-03-30T00:03:45.330Z,45.12
2019-03-30T00:06:34.565Z,42.58
2019-03-30T00:09:10.615Z,38.30
2019-03-30T00:12:00.658Z,39.55
2019-03-30T00:14:43.415Z,39.95
2019-03-30T00:17:33.014Z,39.42
2019-03-30T00:20:31.448Z,40.03
2019-03-30T00:23:20.647Z,33.95
2019-03-30T00:28:45.082Z,41.10
2019-03-30T00:31:21.762Z,40.95
2019-03-30T00:34:10.752Z,37.23
2019-03-30T00:36:53.882Z,39.27
2019-03-30T00:39:49.987Z,35.45
2019-03-30T00:42:40.151Z,44.67
2019-03-30T00:45:17.017Z,36.35
2019-03-30T00:48:09.280Z,38.25
2019-03-30T00:50:52.739Z,38.45
2019-03-30T00:53:42.054Z,39.67
2019-03-30T00:56:18.355Z,42.75
2019-03-30T00:59:07.025Z,42.58
2019-03-30T01:01:50.638Z,35.28
2019-03-30T01:04:33.257Z,39.85
2019-03-30T01:07:29.480Z,38.33
2019-03-30T01:10:25.142Z,28.05
2019-03-30T01:13:21.092Z,39.27
2019-03-30T01:16:16.634Z,34.83
2019-03-30T01:19:13.213Z,36.28
2019-03-30T01:22:08.689Z,40.65
2019-03-30T01:25:05.273Z,38.42
2019-03-30T01:28:01.488Z,36.88
2019-03-30T01:30:50.654Z,38.50
2019-03-30T01:33:26.277Z,37.70
2019-03-30T01:36:22.907Z,35.68
2019-03-30T01:39:14.496Z,34.43
2019-03-30T01:41:50.613Z,37.13
2019-03-30T01:44:41.300Z,34.08
2019-03-30T01:47:17.213Z,32.10
2019-03-30T01:50:16.688Z,33.18
2019-03-30T01:52:43.708Z,31.73
2019-03-30T01:55:33.779Z,31.20
2019-03-30T01:58:16.092Z,30.77
2019-03-30T02:01:05.467Z,34.73
2019-03-30T02:03:55.940Z,33.73
2019-03-30T02:06:31.968Z,34.85
2019-03-30T02:11:56.682Z,32.38
2019-03-30T02:14:45.911Z,35.52
2019-03-30T02:17:27.724Z,34.40
2019-03-30T02:20:30.395Z,30.27
2019-03-30T02:23:04.108Z,34.95
2019-03-30T02:25:54.335Z,33.50
2019-03-30T02:28:37.052Z,28.27
2019-03-30T02:31:27.515Z,31.40
2019-03-30T02:34:03.653Z,30.30
2019-03-30T02:36:53.322Z,30.10
2019-03-30T02:39:49.595Z,31.33
2019-03-30T02:42:45.694Z,30.72
2019-03-30T02:45:41.184Z,32.63
2019-03-30T02:48:37.445Z,29.23
2019-03-30T02:51:33.500Z,30.45
2019-03-30T02:54:29.471Z,34.80
2019-03-30T02:57:25.833Z,34.95
2019-03-30T03:00:16.233Z,32.03
2019-03-30T03:02:59.449Z,32.45
2019-03-30T03:05:47.703Z,36.45
2019-03-30T03:08:24.903Z,31.87
2019-03-30T03:11:14.756Z,30.82
2019-03-30T03:13:50.568Z,33.05
2019-03-30T03:16:40.107Z,32.23
2019-03-30T03:19:16.398Z,31.68
2019-03-30T03:22:06.127Z,33.75
2019-03-30T03:24:42.769Z,31.82
2019-03-30T03:27:34.342Z,33.30
2019-03-30T03:30:18.084Z,32.83
2019-03-30T03:33:13.392Z,29.10
2019-03-30T03:36:09.583Z,31.40
2019-03-30T03:39:06.744Z,30.40
2019-03-30T03:42:02.891Z,30.72
2019-03-30T03:44:59.130Z,33.60
2019-03-30T03:47:55.927Z,31.62
2019-03-30T03:50:56.101Z,32.17
2019-03-30T03:53:45.799Z,31.52
2019-03-30T03:56:22.354Z,32.55
2019-03-30T03:59:11.657Z,31.10
2019-03-30T04:01:47.975Z,31.75
2019-03-30T04:04:37.130Z,31.23
2019-03-30T04:07:13.974Z,29.37
2019-03-30T04:10:04.939Z,34.45
2019-03-30T04:12:48.988Z,32.33
2019-03-30T04:15:37.814Z,29.85
2019-03-30T04:18:20.221Z,28.35
2019-03-30T04:21:10.391Z,29.57
2019-03-30T04:23:47.521Z,34.10
2019-03-30T04:26:35.871Z,30.82
2019-03-30T04:29:13.701Z,32.33
2019-03-30T04:32:02.681Z,30.08
2019-03-30T04:34:52.050Z,30.80
2019-03-30T04:37:28.303Z,28.73
2019-03-30T04:40:18.826Z,31.87
2019-03-30T04:42:55.101Z,30.27
2019-03-30T04:45:43.802Z,33.92
2019-03-30T04:48:20.779Z,34.55
2019-03-30T04:51:10.111Z,31.77
2019-03-30T04:53:46.049Z,28.87
2019-03-30T04:56:35.886Z,33.80
2019-03-30T04:59:13.256Z,32.17
2019-03-30T05:02:03.319Z,34.27
2019-03-30T05:04:40.795Z,31.37
2019-03-30T05:07:30.259Z,30.52
2019-03-30T05:10:14.554Z,31.50
2019-03-30T05:13:04.143Z,33.20
2019-03-30T05:15:46.478Z,33.67
2019-03-30T05:18:33.173Z,32.80
2019-03-30T05:21:16.384Z,34.48
2019-03-30T05:23:59.908Z,32.75
2019-03-30T05:26:43.184Z,36.05
2019-03-30T05:29:26.645Z,39.67
2019-03-30T05:32:09.317Z,40.12
2019-03-30T05:34:53.994Z,39.50
2019-03-30T05:37:37.473Z,43.38
2019-03-30T05:40:33.603Z,42.38
2019-03-30T05:43:22.613Z,42.70
2019-03-30T05:46:11.998Z,44.05
2019-03-30T05:48:49.737Z,39.10
2019-03-30T05:51:39.001Z,41.25
2019-03-30T05:54:15.026Z,41.00
2019-03-30T05:57:04.511Z,49.85
2019-03-30T05:59:43.015Z,47.95
2019-03-30T06:02:33.546Z,38.15
2019-03-30T06:05:09.419Z,42.13
2019-03-30T06:07:59.338Z,44.35
2019-03-30T06:10:57.085Z,40.38
2019-03-30T06:13:54.201Z,34.33
2019-03-30T06:16:44.338Z,33.53
2019-03-30T06:19:20.699Z,34.53
2019-03-30T06:22:10.588Z,37.93
2019-03-30T06:24:47.161Z,35.28
2019-03-30T06:27:38.541Z,31.60
2019-03-30T06:30:33.769Z,34.92
2019-03-30T06:33:31.477Z,44.27
2019-03-30T06:36:29.397Z,36.93
2019-03-30T06:39:19.426Z,40.33
2019-03-30T06:41:56.113Z,42.73
2019-03-30T06:44:45.732Z,37.28
2019-03-30T06:47:21.904Z,44.08
2019-03-30T06:50:14.766Z,38.08
2019-03-30T06:52:58.861Z,38.92
2019-03-30T06:55:54.050Z,41.68
2019-03-30T06:58:42.688Z,39.30
2019-03-30T07:01:18.858Z,34.78
2019-03-30T07:04:11.256Z,29.77
2019-03-30T07:06:47.914Z,27.90
2019-03-30T07:09:39.914Z,29.90
2019-03-30T07:12:22.302Z,36.70
2019-03-30T07:15:19.195Z,28.57
2019-03-30T07:18:11.645Z,33.08
2019-03-30T07:20:48.649Z,35.80
2019-03-30T07:23:39.782Z,34.65
2019-03-30T07:26:30.157Z,32.35
2019-03-30T07:29:19.482Z,35.28
2019-03-30T07:32:09.714Z,35.10
2019-03-30T07:35:07.106Z,34.33
2019-03-30T07:38:02.290Z,37.65
2019-03-30T07:40:58.287Z,36.58
2019-03-30T07:43:47.711Z,38.33
2019-03-30T07:46:24.151Z,42.17
2019-03-30T07:49:13.320Z,40.60
2019-03-30T07:51:50.015Z,37.28
2019-03-30T07:54:39.483Z,36.17
2019-03-30T07:57:17.548Z,34.90
2019-03-30T08:00:14.695Z,36.08
2019-03-30T08:02:57.989Z,33.55
2019-03-30T08:05:55.133Z,31.93
2019-03-30T08:08:44.103Z,31.05
2019-03-30T08:11:30.271Z,31.57
2019-03-30T08:14:26.844Z,26.02
2019-03-30T08:17:22.333Z,33.08
2019-03-30T08:20:19.659Z,31.07
2019-03-30T08:23:09.820Z,29.87
2019-03-30T08:25:52.506Z,31.42
2019-03-30T08:28:48.357Z,29.87
2019-03-30T08:31:37.647Z,31.42
2019-03-30T08:37:09.353Z,40.10
2019-03-30T08:39:51.840Z,35.08
2019-03-30T08:42:43.089Z,34.55
2019-03-30T08:45:26.373Z,32.17
2019-03-30T08:48:17.391Z,34.88
2019-03-30T08:51:05.227Z,31.95
2019-03-30T08:54:02.373Z,35.03
2019-03-30T08:56:57.761Z,35.20
2019-03-30T08:59:57.449Z,32.98
2019-03-30T09:02:48.815Z,35.35
2019-03-30T09:05:31.172Z,32.80
2019-03-30T09:08:27.725Z,33.73
2019-03-30T09:11:25.187Z,33.38
2019-03-30T09:14:17.771Z,38.75
2019-03-30T09:17:07.330Z,35.80
2019-03-30T09:19:43.605Z,33.53
2019-03-30T09:22:31.904Z,38.30
2019-03-30T09:25:20.243Z,34.45
2019-03-30T09:28:03.562Z,33.85
2019-03-30T09:30:46.031Z,34.20
2019-03-30T09:33:36.013Z,34.30
2019-03-30T09:36:18.294Z,34.08
2019-03-30T09:39:08.515Z,37.75
2019-03-30T09:41:51.806Z,35.43
2019-03-30T09:44:35.383Z,35.10
2019-03-30T09:47:17.641Z,34.83
2019-03-30T09:50:02.504Z,36.00
2019-03-30T09:52:46.545Z,36.90
2019-03-30T09:55:29.440Z,32.60
2019-03-30T09:58:18.567Z,33.80
2019-03-30T10:00:54.455Z,36.53
2019-03-30T10:03:44.877Z,38.45
2019-03-30T10:06:30.500Z,34.85
2019-03-30T10:09:12.485Z,38.67
2019-03-30T10:11:48.289Z,37.78
2019-03-30T10:14:37.648Z,31.93
2019-03-30T10:17:14.449Z,32.05
2019-03-30T10:20:04.970Z,40.08
2019-03-30T10:22:42.344Z,33.45
2019-03-30T10:25:33.081Z,33.65
2019-03-30T10:28:11.217Z,33.02
2019-03-30T10:31:01.254Z,32.53
2019-03-30T10:33:37.040Z,37.90
2019-03-30T10:36:26.362Z,39.92
2019-03-30T10:39:01.992Z,32.03
2019-03-30T10:41:52.558Z,32.95
2019-03-30T10:44:29.027Z,30.70
2019-03-30T10:47:18.597Z,33.83
2019-03-30T10:49:54.646Z,32.98
2019-03-30T10:52:43.881Z,29.85
2019-03-30T10:55:20.639Z,34.05
2019-03-30T10:58:09.647Z,32.17
2019-03-30T11:00:54.183Z,33.85
2019-03-30T11:03:44.228Z,33.53
2019-03-30T11:06:22.253Z,36.17
2019-03-30T11:09:12.257Z,33.55
2019-03-30T11:11:55.682Z,29.18
2019-03-30T11:14:37.745Z,40.67
2019-03-30T11:17:22.302Z,26.68
2019-03-30T11:20:05.573Z,28.98
2019-03-30T11:22:48.386Z,30.37
2019-03-30T11:25:31.312Z,29.87
2019-03-30T11:28:22.782Z,30.72
2019-03-30T11:31:05.897Z,33.45
2019-03-30T11:33:50.787Z,33.63
2019-03-30T11:36:32.856Z,28.23
2019-03-30T11:39:15.662Z,28.52
2019-03-30T11:41:58.674Z,29.20
2019-03-30T11:44:48.354Z,30.55
2019-03-30T11:47:24.502Z,30.32
2019-03-30T11:50:14.230Z,27.35
2019-03-30T11:52:57.798Z,31.12
2019-03-30T11:55:41.498Z,30.72
2019-03-30T11:58:23.685Z,29.82
2019-03-30T12:01:13.365Z,35.05
2019-03-30T12:03:57.996Z,32.98
2019-03-30T12:06:43.020Z,35.58
2019-03-30T12:09:26.617Z,35.17
2019-03-30T12:12:11.723Z,32.23
2019-03-30T12:14:54.743Z,31.42
2019-03-30T12:17:41.104Z,37.10
2019-03-30T12:20:23.266Z,33.75
2019-03-30T12:23:05.460Z,32.38
2019-03-30T12:25:48.222Z,35.50
2019-03-30T12:28:37.303Z,30.80
2019-03-30T12:31:19.777Z,31.20
2019-03-30T12:34:09.191Z,29.35
2019-03-30T12:37:05.968Z,30.45
2019-03-30T12:39:58.084Z,30.75
2019-03-30T12:42:32.766Z,28.67
2019-03-30T12:45:23.007Z,28.80
2019-03-30T12:48:05.773Z,28.65
2019-03-30T12:51:05.715Z,28.30
2019-03-30T12:54:01.436Z,30.05
2019-03-30T12:56:50.021Z,31.33
2019-03-30T12:59:26.362Z,33.55
2019-03-30T13:02:15.720Z,31.05
2019-03-30T13:04:53.017Z,31.12
2019-03-30T13:07:42.343Z,29.65
2019-03-30T13:10:19.017Z,31.33
2019-03-30T13:13:09.637Z,28.75
2019-03-30T13:15:46.134Z,29.82
2019-03-30T13:18:35.229Z,30.30
2019-03-30T13:21:12.252Z,31.93
2019-03-30T13:24:01.464Z,30.37
2019-03-30T13:26:38.015Z,28.52
2019-03-30T13:29:27.808Z,26.75
2019-03-30T13:32:17.232Z,35.03
2019-03-30T13:35:13.478Z,34.15
2019-03-30T13:38:11.067Z,32.67
2019-03-30T13:41:07.931Z,32.17
2019-03-30T13:44:05.667Z,34.33
2019-03-30T13:46:54.007Z,32.75
2019-03-30T13:49:32.263Z,37.05
2019-03-30T13:52:21.745Z,32.48
2019-03-30T13:55:12.017Z,32.70
2019-03-30T13:57:55.024Z,32.73
2019-03-30T14:00:44.309Z,33.28
2019-03-30T14:03:26.883Z,33.13
2019-03-30T14:06:16.418Z,34.63
2019-03-30T14:08:52.598Z,32.10
2019-03-30T14:11:42.963Z,30.57
2019-03-30T14:14:27.688Z,33.80
2019-03-30T14:17:09.973Z,33.67
2019-03-30T14:19:54.895Z,37.70
2019-03-30T14:22:38.722Z,31.52
2019-03-30T14:25:21.697Z,32.00
2019-03-30T14:28:05.651Z,36.35
2019-03-30T14:30:48.481Z,31.62
2019-03-30T14:33:32.965Z,32.58
2019-03-30T14:36:16.254Z,34.85
2019-03-30T14:39:12.672Z,34.58
2019-03-30T14:42:07.925Z,35.45
2019-03-30T14:45:03.412Z,42.67
2019-03-30T14:48:00.301Z,35.43
2019-03-30T14:50:57.107Z,37.65
2019-03-30T14:53:45.639Z,38.17
2019-03-30T14:56:44.519Z,31.87
2019-03-30T14:59:32.722Z,34.98
2019-03-30T15:02:29.760Z,40.50
2019-03-30T15:05:29.509Z,36.77
2019-03-30T15:08:19.973Z,38.20
2019-03-30T15:10:56.667Z,33.92
2019-03-30T15:13:46.636Z,36.23
2019-03-30T15:16:27.513Z,37.05
2019-03-30T15:19:17.767Z,36.53
2019-03-30T15:21:57.082Z,42.17
2019-03-30T15:24:47.434Z,34.03
2019-03-30T15:30:37.946Z,37.93
2019-03-30T15:33:30.789Z,36.63
2019-03-30T15:36:15.967Z,37.78
2019-03-30T15:39:14.443Z,38.28
2019-03-30T15:42:06.792Z,35.33
2019-03-30T15:44:43.526Z,37.03
2019-03-30T15:47:33.263Z,37.67
2019-03-30T15:50:17.836Z,36.10
2019-03-30T15:53:10.066Z,34.45
2019-03-30T15:56:05.260Z,33.30
2019-03-30T15:59:02.517Z,38.00
2019-03-30T16:02:01.508Z,35.00
2019-03-30T16:04:46.701Z,35.35
2019-03-30T16:07:36.691Z,39.08
2019-03-30T16:10:19.750Z,35.20
2019-03-30T16:13:16.209Z,34.20
2019-03-30T16:16:01.753Z,39.30
2019-03-30T16:18:51.961Z,41.15
2019-03-30T16:21:35.798Z,41.63
2019-03-30T16:24:30.144Z,35.10
2019-03-30T16:27:06.962Z,35.73
2019-03-30T16:29:58.610Z,41.20
2019-03-30T16:32:34.871Z,36.30
2019-03-30T16:35:26.232Z,38.58
2019-03-30T16:38:02.247Z,35.73
2019-03-30T16:40:51.643Z,34.80
2019-03-30T16:43:54.167Z,39.45
2019-03-30T16:46:52.822Z,40.40
2019-03-30T16:49:48.645Z,40.03
2019-03-30T16:52:42.509Z,35.15
2019-03-30T16:55:19.876Z,38.75
2019-03-30T17:00:56.347Z,45.78
2019-03-30T17:03:30.806Z,56.92
2019-03-30T17:06:27.435Z,36.13
2019-03-30T17:09:21.168Z,33.33
2019-03-30T17:12:04.317Z,44.83
2019-03-30T17:15:00.399Z,39.50
2019-03-30T17:17:43.807Z,38.17
2019-03-30T17:20:25.894Z,40.90
2019-03-30T17:23:09.973Z,41.73
2019-03-30T17:26:06.118Z,39.30
2019-03-30T17:29:02.746Z,43.83
2019-03-30T17:31:51.249Z,41.08
2019-03-30T17:34:41.537Z,38.85
2019-03-30T17:37:24.378Z,39.53
2019-03-30T17:40:28.272Z,40.28
2019-03-30T17:43:24.539Z,41.02
2019-03-30T17:46:20.885Z,38.13
2019-03-30T17:49:16.153Z,43.87
2019-03-30T17:52:14.651Z,44.18
2019-03-30T17:55:04.349Z,42.15
2019-03-30T17:57:48.085Z,42.60
2019-03-30T18:00:36.447Z,39.35
2019-03-30T18:03:14.242Z,43.48
2019-03-30T18:06:03.243Z,40.90
2019-03-30T18:08:45.711Z,49.77
2019-03-30T18:11:28.097Z,44.65
2019-03-30T18:14:11.129Z,42.27
2019-03-30T18:16:53.390Z,43.13
2019-03-30T18:19:36.102Z,44.25
2019-03-30T18:22:25.522Z,50.50
2019-03-30T18:25:08.870Z,49.45
2019-03-30T18:28:06.311Z,53.75
2019-03-30T18:31:01.529Z,51.40
2019-03-30T18:33:57.950Z,52.58
2019-03-30T18:36:48.579Z,52.65
2019-03-30T18:39:38.631Z,47.58
2019-03-30T18:42:15.195Z,52.38
2019-03-30T18:45:05.224Z,52.67
2019-03-30T18:47:41.738Z,52.17
2019-03-30T18:50:31.796Z,51.63
2019-03-30T18:53:07.957Z,48.13
2019-03-30T18:55:57.388Z,53.55
2019-03-30T18:58:41.525Z,51.80
2019-03-30T19:01:24.135Z,51.55
2019-03-30T19:04:06.557Z,49.13
2019-03-30T19:06:56.304Z,51.02
2019-03-30T19:09:34.142Z,47.08
2019-03-30T19:12:25.019Z,39.27
2019-03-30T19:15:15.195Z,45.63
2019-03-30T19:20:41.467Z,43.85
2019-03-30T19:23:31.461Z,42.00
2019-03-30T19:26:07.445Z,45.05
2019-03-30T19:28:56.982Z,42.70
2019-03-30T19:31:32.878Z,49.85
2019-03-30T19:36:57.947Z,44.30
2019-03-30T19:39:48.087Z,47.60
2019-03-30T19:42:37.736Z,45.73
2019-03-30T19:45:33.165Z,49.03
2019-03-30T19:48:31.497Z,45.70
2019-03-30T19:51:27.651Z,41.80
2019-03-30T19:54:23.760Z,43.63
2019-03-30T19:57:19.405Z,44.80
2019-03-30T20:00:09.952Z,44.80
2019-03-30T20:02:46.373Z,45.90
2019-03-30T20:05:36.661Z,42.15
2019-03-30T20:08:12.859Z,45.88
2019-03-30T20:11:02.123Z,49.53
2019-03-30T20:13:44.874Z,45.55
2019-03-30T20:16:34.230Z,47.00
2019-03-30T20:19:12.627Z,50.03
2019-03-30T20:22:00.558Z,59.93
2019-03-30T20:24:43.795Z,57.38
2019-03-30T20:27:33.189Z,57.55
2019-03-30T20:33:13.117Z,63.28
2019-03-30T20:36:02.774Z,57.75
2019-03-30T20:38:45.938Z,62.27
2019-03-30T20:41:35.573Z,60.73
2019-03-30T20:44:18.255Z,57.15
2019-03-30T20:47:09.256Z,57.93
2019-03-30T20:49:52.585Z,49.27
2019-03-30T20:52:43.098Z,55.80
2019-03-30T20:55:20.363Z,52.67
2019-03-30T20:58:09.270Z,54.83
2019-03-30T21:00:52.629Z,52.78
2019-03-30T21:03:41.663Z,57.15
2019-03-30T21:06:18.249Z,54.10
2019-03-30T21:09:11.807Z,60.05
2019-03-30T21:11:47.383Z,56.70
2019-03-30T21:14:36.782Z,57.40
2019-03-30T21:17:19.434Z,51.40
2019-03-30T21:20:14.999Z,49.90
2019-03-30T21:23:03.717Z,53.35
2019-03-30T21:25:40.691Z,56.98
2019-03-30T21:28:29.786Z,51.30
2019-03-30T21:31:12.558Z,49.98
2019-03-30T21:33:58.433Z,51.42
2019-03-30T21:36:41.307Z,53.65
2019-03-30T21:39:24.822Z,61.18
2019-03-30T21:42:09.867Z,52.08
2019-03-30T21:44:52.662Z,56.55
2019-03-30T21:47:43.393Z,53.30
2019-03-30T21:50:26.609Z,52.53
2019-03-30T21:53:09.438Z,52.10
2019-03-30T21:55:51.081Z,59.08
2019-03-30T21:58:26.848Z,51.35
2019-03-30T22:01:16.595Z,56.42
2019-03-30T22:03:52.603Z,54.95
2019-03-30T22:06:41.994Z,56.55
2019-03-30T22:09:24.910Z,54.77
2019-03-30T22:12:19.968Z,53.28
2019-03-30T22:15:16.167Z,52.80
2019-03-30T22:18:04.851Z,57.25
2019-03-30T22:20:47.701Z,54.13
2019-03-30T22:23:36.353Z,47.00
2019-03-30T22:26:12.858Z,53.92
2019-03-30T22:29:02.039Z,49.70
2019-03-30T22:31:38.630Z,52.03
2019-03-30T22:34:27.386Z,54.48
2019-03-30T22:37:03.510Z,50.60
2019-03-30T22:39:53.369Z,51.05
2019-03-30T22:42:29.296Z,52.75
2019-03-30T22:45:25.457Z,50.80
2019-03-30T22:48:07.489Z,48.13
2019-03-30T22:50:56.539Z,53.78
2019-03-30T22:53:32.747Z,49.45
2019-03-30T22:56:22.658Z,53.87
2019-03-30T22:59:00.155Z,48.85
2019-03-30T23:01:49.571Z,51.13
2019-03-30T23:04:25.957Z,53.58
2019-03-30T23:07:15.457Z,59.70
2019-03-30T23:09:51.079Z,50.05
2019-03-30T23:15:15.561Z,49.03
2019-03-30T23:18:05.425Z,49.98
2019-03-30T23:21:01.481Z,56.18
2019-03-30T23:23:49.917Z,54.27
2019-03-30T23:26:33.908Z,51.90
2019-03-30T23:29:29.591Z,62.35
2019-03-30T23:32:18.424Z,52.90
2019-03-30T23:35:01.204Z,52.23
2019-03-30T23:37:57.796Z,57.25
2019-03-30T23:40:48.033Z,54.73
2019-03-30T23:43:26.104Z,54.93
2019-03-30T23:46:22.170Z,52.15
2019-03-30T23:49:13.638Z,57.65
2019-03-30T23:51:55.311Z,50.20
2019-03-30T23:54:38.132Z,49.90
2019-03-30T23:57:20.041Z,53.42
